sensor_id;sensor_type;location;lat;lon;timestamp;noise_LAeq;noise_LA_min;noise_LA_max;noise_LA01;noise_LA95
63692;Laerm;49838;51.798;10.954;2023-03-14T00:02:02;36.06;29.65;50.18;;
63692;Laerm;49838;51.798;10.954;2023-03-14T00:04:30;40.76;29.50;64.53;;
63692;Laerm;49838;51.798;10.954;2023-03-14T00:06:57;32.98;28.84;43.09;;
63692;Laerm;49838;51.798;10.954;2023-03-14T00:09:24;32.45;28.65;44.20;;
63692;Laerm;49838;51.798;10.954;2023-03-14T00:11:52;32.32;28.29;47.96;;
63692;Laerm;49838;51.798;10.954;2023-03-14T00:14:20;32.07;28.47;44.82;;
63692;Laerm;49838;51.798;10.954;2023-03-14T00:16:48;31.23;28.30;45.03;;
63692;Laerm;49838;51.798;10.954;2023-03-14T00:19:18;33.18;28.04;47.08;;
63692;Laerm;49838;51.798;10.954;2023-03-14T00:21:45;31.69;28.16;40.97;;
63692;Laerm;49838;51.798;10.954;2023-03-14T00:24:13;35.49;28.75;60.32;;
63692;Laerm;49838;51.798;10.954;2023-03-14T00:26:41;31.88;27.77;46.68;;
63692;Laerm;49838;51.798;10.954;2023-03-14T00:29:08;54.21;27.37;72.56;;
63692;Laerm;49838;51.798;10.954;2023-03-14T00:31:35;44.42;28.81;63.35;;
63692;Laerm;49838;51.798;10.954;2023-03-14T00:34:03;30.46;27.68;41.66;;
63692;Laerm;49838;51.798;10.954;2023-03-14T00:36:31;30.36;27.40;39.26;;
63692;Laerm;49838;51.798;10.954;2023-03-14T00:38:58;30.74;28.06;40.77;;
63692;Laerm;49838;51.798;10.954;2023-03-14T00:41:26;32.27;27.75;42.58;;
63692;Laerm;49838;51.798;10.954;2023-03-14T00:43:53;31.53;28.22;40.89;;
63692;Laerm;49838;51.798;10.954;2023-03-14T00:46:21;30.05;27.66;39.49;;
63692;Laerm;49838;51.798;10.954;2023-03-14T00:48:48;29.42;27.47;37.35;;
63692;Laerm;49838;51.798;10.954;2023-03-14T00:51:16;29.35;27.15;37.56;;
63692;Laerm;49838;51.798;10.954;2023-03-14T00:53:44;29.31;27.02;37.78;;
63692;Laerm;49838;51.798;10.954;2023-03-14T00:56:12;30.59;27.26;42.40;;
63692;Laerm;49838;51.798;10.954;2023-03-14T00:58:40;30.35;27.81;41.09;;
63692;Laerm;49838;51.798;10.954;2023-03-14T01:01:09;30.93;27.49;52.49;;
63692;Laerm;49838;51.798;10.954;2023-03-14T01:03:36;32.25;28.00;48.23;;
63692;Laerm;49838;51.798;10.954;2023-03-14T01:06:08;29.87;27.69;37.02;;
63692;Laerm;49838;51.798;10.954;2023-03-14T01:08:36;31.55;27.25;49.81;;
63692;Laerm;49838;51.798;10.954;2023-03-14T01:11:07;32.44;27.73;49.95;;
63692;Laerm;49838;51.798;10.954;2023-03-14T01:13:35;37.83;29.67;58.59;;
63692;Laerm;49838;51.798;10.954;2023-03-14T01:16:03;35.04;28.28;47.20;;
63692;Laerm;49838;51.798;10.954;2023-03-14T01:18:33;30.96;28.17;41.71;;
63692;Laerm;49838;51.798;10.954;2023-03-14T01:21:00;32.20;28.64;41.57;;
63692;Laerm;49838;51.798;10.954;2023-03-14T01:23:28;32.57;28.02;49.44;;
63692;Laerm;49838;51.798;10.954;2023-03-14T01:25:55;36.68;29.07;57.78;;
63692;Laerm;49838;51.798;10.954;2023-03-14T01:28:24;33.34;28.21;51.70;;
63692;Laerm;49838;51.798;10.954;2023-03-14T01:30:51;37.40;27.94;61.60;;
63692;Laerm;49838;51.798;10.954;2023-03-14T01:33:18;31.47;28.34;45.00;;
63692;Laerm;49838;51.798;10.954;2023-03-14T01:35:45;33.38;28.90;53.59;;
63692;Laerm;49838;51.798;10.954;2023-03-14T01:38:13;34.69;29.27;54.62;;
63692;Laerm;49838;51.798;10.954;2023-03-14T01:40:43;33.19;28.92;48.38;;
63692;Laerm;49838;51.798;10.954;2023-03-14T01:43:16;32.81;27.24;53.59;;
63692;Laerm;49838;51.798;10.954;2023-03-14T01:46:14;29.54;27.30;42.01;;
63692;Laerm;49838;51.798;10.954;2023-03-14T01:48:48;30.73;27.41;42.98;;
63692;Laerm;49838;51.798;10.954;2023-03-14T01:51:21;31.35;28.27;41.29;;
63692;Laerm;49838;51.798;10.954;2023-03-14T01:53:54;31.44;28.13;39.02;;
63692;Laerm;49838;51.798;10.954;2023-03-14T01:56:22;30.37;28.01;35.16;;
63692;Laerm;49838;51.798;10.954;2023-03-14T01:58:51;31.64;28.28;41.66;;
63692;Laerm;49838;51.798;10.954;2023-03-14T02:01:24;30.36;28.25;37.88;;
63692;Laerm;49838;51.798;10.954;2023-03-14T02:03:54;32.62;28.63;44.28;;
63692;Laerm;49838;51.798;10.954;2023-03-14T02:06:25;38.36;28.54;58.74;;
63692;Laerm;49838;51.798;10.954;2023-03-14T02:08:54;29.98;27.81;36.58;;
63692;Laerm;49838;51.798;10.954;2023-03-14T02:11:21;30.69;27.67;37.47;;
63692;Laerm;49838;51.798;10.954;2023-03-14T02:13:54;31.75;28.26;43.67;;
63692;Laerm;49838;51.798;10.954;2023-03-14T02:16:24;32.67;29.01;44.92;;
63692;Laerm;49838;51.798;10.954;2023-03-14T02:18:51;31.22;28.78;37.64;;
63692;Laerm;49838;51.798;10.954;2023-03-14T02:21:23;32.33;28.14;47.07;;
63692;Laerm;49838;51.798;10.954;2023-03-14T02:23:59;33.54;28.80;45.38;;
63692;Laerm;49838;51.798;10.954;2023-03-14T02:26:34;39.20;29.50;60.97;;
63692;Laerm;49838;51.798;10.954;2023-03-14T02:29:05;31.24;28.24;41.23;;
63692;Laerm;49838;51.798;10.954;2023-03-14T02:31:32;33.32;30.09;43.59;;
63692;Laerm;49838;51.798;10.954;2023-03-14T02:34:01;32.62;29.09;39.64;;
63692;Laerm;49838;51.798;10.954;2023-03-14T02:36:29;30.99;28.69;39.62;;
63692;Laerm;49838;51.798;10.954;2023-03-14T02:39:03;31.84;28.37;47.20;;
63692;Laerm;49838;51.798;10.954;2023-03-14T02:41:34;32.23;28.95;42.65;;
63692;Laerm;49838;51.798;10.954;2023-03-14T02:44:01;32.64;29.08;39.46;;
63692;Laerm;49838;51.798;10.954;2023-03-14T02:46:30;30.81;28.57;39.77;;
63692;Laerm;49838;51.798;10.954;2023-03-14T02:49:01;32.05;29.02;37.93;;
63692;Laerm;49838;51.798;10.954;2023-03-14T02:51:29;34.22;31.14;42.32;;
63692;Laerm;49838;51.798;10.954;2023-03-14T02:53:56;34.41;30.71;49.91;;
63692;Laerm;49838;51.798;10.954;2023-03-14T02:56:24;38.12;30.52;63.99;;
63692;Laerm;49838;51.798;10.954;2023-03-14T02:58:51;38.48;30.45;55.62;;
63692;Laerm;49838;51.798;10.954;2023-03-14T03:01:18;38.74;32.14;52.33;;
63692;Laerm;49838;51.798;10.954;2023-03-14T03:03:47;34.01;30.47;47.60;;
63692;Laerm;49838;51.798;10.954;2023-03-14T03:06:15;35.93;31.10;59.13;;
63692;Laerm;49838;51.798;10.954;2023-03-14T03:08:42;35.18;30.65;57.63;;
63692;Laerm;49838;51.798;10.954;2023-03-14T03:11:10;35.59;31.08;56.85;;
63692;Laerm;49838;51.798;10.954;2023-03-14T03:13:37;34.57;30.87;48.97;;
63692;Laerm;49838;51.798;10.954;2023-03-14T03:16:05;34.52;30.29;43.31;;
63692;Laerm;49838;51.798;10.954;2023-03-14T03:18:32;34.55;31.22;40.65;;
63692;Laerm;49838;51.798;10.954;2023-03-14T03:21:02;38.02;32.07;57.69;;
63692;Laerm;49838;51.798;10.954;2023-03-14T03:23:30;36.78;32.78;53.68;;
63692;Laerm;49838;51.798;10.954;2023-03-14T03:25:57;58.30;32.34;78.86;;
63692;Laerm;49838;51.798;10.954;2023-03-14T03:28:24;36.73;32.89;43.08;;
63692;Laerm;49838;51.798;10.954;2023-03-14T03:30:52;38.09;32.95;52.33;;
63692;Laerm;49838;51.798;10.954;2023-03-14T03:33:19;38.45;33.82;53.18;;
63692;Laerm;49838;51.798;10.954;2023-03-14T03:35:49;55.32;32.94;75.04;;
63692;Laerm;49838;51.798;10.954;2023-03-14T03:38:18;36.53;32.13;44.40;;
63692;Laerm;49838;51.798;10.954;2023-03-14T03:40:46;38.21;33.95;54.13;;
63692;Laerm;49838;51.798;10.954;2023-03-14T03:43:13;38.65;34.19;47.11;;
63692;Laerm;49838;51.798;10.954;2023-03-14T03:45:40;40.56;35.19;56.61;;
63692;Laerm;49838;51.798;10.954;2023-03-14T03:48:07;41.67;35.03;52.35;;
63692;Laerm;49838;51.798;10.954;2023-03-14T03:50:35;57.14;35.31;76.28;;
63692;Laerm;49838;51.798;10.954;2023-03-14T03:53:02;44.08;33.85;56.27;;
63692;Laerm;49838;51.798;10.954;2023-03-14T03:55:31;38.42;34.03;53.83;;
63692;Laerm;49838;51.798;10.954;2023-03-14T03:57:58;38.40;34.49;47.70;;
63692;Laerm;49838;51.798;10.954;2023-03-14T04:00:25;38.93;34.65;47.86;;
63692;Laerm;49838;51.798;10.954;2023-03-14T04:02:52;38.61;34.76;49.10;;
63692;Laerm;49838;51.798;10.954;2023-03-14T04:05:20;49.86;34.24;66.58;;
63692;Laerm;49838;51.798;10.954;2023-03-14T04:07:47;41.70;35.11;63.69;;
63692;Laerm;49838;51.798;10.954;2023-03-14T04:10:14;43.58;36.87;59.35;;
63692;Laerm;49838;51.798;10.954;2023-03-14T04:12:43;42.06;35.27;63.40;;
63692;Laerm;49838;51.798;10.954;2023-03-14T04:15:10;41.84;36.62;57.31;;
63692;Laerm;49838;51.798;10.954;2023-03-14T04:17:37;41.45;36.43;62.40;;
63692;Laerm;49838;51.798;10.954;2023-03-14T04:20:06;53.43;37.10;71.64;;
63692;Laerm;49838;51.798;10.954;2023-03-14T04:22:37;42.99;36.65;62.80;;
63692;Laerm;49838;51.798;10.954;2023-03-14T04:25:05;57.10;35.08;76.19;;
63692;Laerm;49838;51.798;10.954;2023-03-14T04:27:33;48.67;37.45;66.54;;
63692;Laerm;49838;51.798;10.954;2023-03-14T04:30:02;54.34;37.27;74.63;;
63692;Laerm;49838;51.798;10.954;2023-03-14T04:32:29;43.70;37.11;66.14;;
63692;Laerm;49838;51.798;10.954;2023-03-14T04:34:56;41.06;36.97;51.76;;
63692;Laerm;49838;51.798;10.954;2023-03-14T04:37:24;50.49;38.17;68.78;;
63692;Laerm;49838;51.798;10.954;2023-03-14T04:39:51;46.77;36.25;68.80;;
63692;Laerm;49838;51.798;10.954;2023-03-14T04:42:18;49.34;38.46;66.73;;
63692;Laerm;49838;51.798;10.954;2023-03-14T04:44:45;49.84;38.63;63.23;;
63692;Laerm;49838;51.798;10.954;2023-03-14T04:47:16;50.59;36.91;66.71;;
63692;Laerm;49838;51.798;10.954;2023-03-14T04:49:44;55.31;36.70;72.68;;
63692;Laerm;49838;51.798;10.954;2023-03-14T04:52:11;54.13;36.52;72.90;;
63692;Laerm;49838;51.798;10.954;2023-03-14T04:54:38;44.82;37.01;57.00;;
63692;Laerm;49838;51.798;10.954;2023-03-14T04:57:05;43.34;36.56;54.59;;
63692;Laerm;49838;51.798;10.954;2023-03-14T04:59:33;56.33;37.32;75.28;;
63692;Laerm;49838;51.798;10.954;2023-03-14T05:02:00;42.21;36.95;54.02;;
63692;Laerm;49838;51.798;10.954;2023-03-14T05:04:29;55.96;38.45;73.82;;
63692;Laerm;49838;51.798;10.954;2023-03-14T05:06:58;48.98;36.59;62.44;;
63692;Laerm;49838;51.798;10.954;2023-03-14T05:09:26;41.18;36.71;49.85;;
63692;Laerm;49838;51.798;10.954;2023-03-14T05:11:53;51.31;37.56;68.69;;
63692;Laerm;49838;51.798;10.954;2023-03-14T05:14:20;44.92;39.02;58.81;;
63692;Laerm;49838;51.798;10.954;2023-03-14T05:16:48;49.44;37.60;66.24;;
63692;Laerm;49838;51.798;10.954;2023-03-14T05:19:15;41.79;36.05;50.02;;
63692;Laerm;49838;51.798;10.954;2023-03-14T05:21:44;52.26;36.66;70.10;;
63692;Laerm;49838;51.798;10.954;2023-03-14T05:24:11;55.66;37.67;72.16;;
63692;Laerm;49838;51.798;10.954;2023-03-14T05:26:38;56.04;36.81;72.77;;
63692;Laerm;49838;51.798;10.954;2023-03-14T05:29:05;55.26;37.24;74.06;;
63692;Laerm;49838;51.798;10.954;2023-03-14T05:31:33;52.09;37.81;70.27;;
63692;Laerm;49838;51.798;10.954;2023-03-14T05:34:03;60.47;40.66;73.50;;
63692;Laerm;49838;51.798;10.954;2023-03-14T05:36:30;58.20;38.32;74.94;;
63692;Laerm;49838;51.798;10.954;2023-03-14T05:38:58;42.73;37.38;51.16;;
63692;Laerm;49838;51.798;10.954;2023-03-14T05:41:26;56.34;38.80;73.02;;
63692;Laerm;49838;51.798;10.954;2023-03-14T05:43:53;48.36;39.28;64.23;;
63692;Laerm;49838;51.798;10.954;2023-03-14T05:46:20;60.13;39.83;73.95;;
63692;Laerm;49838;51.798;10.954;2023-03-14T05:48:48;60.40;41.17;75.99;;
63692;Laerm;49838;51.798;10.954;2023-03-14T05:51:15;58.08;38.78;74.43;;
63692;Laerm;49838;51.798;10.954;2023-03-14T05:53:42;51.41;39.69;67.18;;
63692;Laerm;49838;51.798;10.954;2023-03-14T05:56:11;62.59;40.91;75.77;;
63692;Laerm;49838;51.798;10.954;2023-03-14T05:58:38;56.06;38.66;73.51;;
63692;Laerm;49838;51.798;10.954;2023-03-14T06:01:06;43.30;38.95;56.08;;
63692;Laerm;49838;51.798;10.954;2023-03-14T06:03:34;54.63;40.19;71.74;;
63692;Laerm;49838;51.798;10.954;2023-03-14T06:06:02;61.39;41.99;75.74;;
63692;Laerm;49838;51.798;10.954;2023-03-14T06:08:29;59.54;41.86;73.69;;
63692;Laerm;49838;51.798;10.954;2023-03-14T06:10:56;61.51;39.15;75.59;;
63692;Laerm;49838;51.798;10.954;2023-03-14T06:13:25;56.24;39.94;71.14;;
63692;Laerm;49838;51.798;10.954;2023-03-14T06:15:53;69.32;41.69;81.78;;
63692;Laerm;49838;51.798;10.954;2023-03-14T06:18:20;55.50;41.60;69.50;;
63692;Laerm;49838;51.798;10.954;2023-03-14T06:20:47;61.67;39.97;84.30;;
63692;Laerm;49838;51.798;10.954;2023-03-14T06:23:14;66.06;41.95;84.95;;
63692;Laerm;49838;51.798;10.954;2023-03-14T06:25:42;62.34;42.99;81.86;;
63692;Laerm;49838;51.798;10.954;2023-03-14T06:28:09;60.26;44.48;73.88;;
63692;Laerm;49838;51.798;10.954;2023-03-14T06:30:37;61.69;42.87;74.23;;
63692;Laerm;49838;51.798;10.954;2023-03-14T06:33:05;62.59;39.06;76.56;;
63692;Laerm;49838;51.798;10.954;2023-03-14T06:35:32;58.92;41.86;72.91;;
63692;Laerm;49838;51.798;10.954;2023-03-14T06:38:00;64.16;41.13;81.40;;
63692;Laerm;49838;51.798;10.954;2023-03-14T06:40:27;57.60;41.38;70.50;;
63692;Laerm;49838;51.798;10.954;2023-03-14T06:42:54;55.96;40.46;71.09;;
63692;Laerm;49838;51.798;10.954;2023-03-14T06:45:22;55.94;40.90;69.53;;
63692;Laerm;49838;51.798;10.954;2023-03-14T06:47:50;63.30;39.85;81.59;;
63692;Laerm;49838;51.798;10.954;2023-03-14T06:50:18;58.01;40.91;74.64;;
63692;Laerm;49838;51.798;10.954;2023-03-14T06:52:45;61.40;42.02;77.36;;
63692;Laerm;49838;51.798;10.954;2023-03-14T06:55:14;59.46;41.07;73.27;;
63692;Laerm;49838;51.798;10.954;2023-03-14T06:57:41;56.49;40.76;71.88;;
63692;Laerm;49838;51.798;10.954;2023-03-14T07:00:11;59.54;40.47;77.06;;
63692;Laerm;49838;51.798;10.954;2023-03-14T07:02:38;58.03;38.52;72.18;;
63692;Laerm;49838;51.798;10.954;2023-03-14T07:05:08;58.83;38.28;73.48;;
63692;Laerm;49838;51.798;10.954;2023-03-14T07:07:36;51.75;38.76;70.00;;
63692;Laerm;49838;51.798;10.954;2023-03-14T07:10:04;57.40;38.72;74.23;;
63692;Laerm;49838;51.798;10.954;2023-03-14T07:12:31;55.73;39.37;71.54;;
63692;Laerm;49838;51.798;10.954;2023-03-14T07:14:59;54.29;38.44;72.86;;
63692;Laerm;49838;51.798;10.954;2023-03-14T07:17:26;51.28;37.33;66.41;;
63692;Laerm;49838;51.798;10.954;2023-03-14T07:19:54;57.78;37.46;70.90;;
63692;Laerm;49838;51.798;10.954;2023-03-14T07:22:22;54.49;39.12;69.64;;
63692;Laerm;49838;51.798;10.954;2023-03-14T07:24:50;52.30;38.59;66.09;;
63692;Laerm;49838;51.798;10.954;2023-03-14T07:27:17;56.45;39.55;72.54;;
63692;Laerm;49838;51.798;10.954;2023-03-14T07:29:44;53.56;40.15;72.62;;
63692;Laerm;49838;51.798;10.954;2023-03-14T07:32:11;57.22;40.68;70.63;;
63692;Laerm;49838;51.798;10.954;2023-03-14T07:34:40;63.27;39.34;82.01;;
63692;Laerm;49838;51.798;10.954;2023-03-14T07:37:08;58.34;40.44;71.74;;
63692;Laerm;49838;51.798;10.954;2023-03-14T07:39:37;51.81;39.52;66.39;;
63692;Laerm;49838;51.798;10.954;2023-03-14T07:42:04;59.10;39.75;73.78;;
63692;Laerm;49838;51.798;10.954;2023-03-14T07:44:32;57.18;41.69;70.37;;
63692;Laerm;49838;51.798;10.954;2023-03-14T07:46:59;48.94;40.00;62.92;;
63692;Laerm;49838;51.798;10.954;2023-03-14T07:49:27;60.17;39.77;74.93;;
63692;Laerm;49838;51.798;10.954;2023-03-14T07:51:54;54.10;41.48;68.32;;
63692;Laerm;49838;51.798;10.954;2023-03-14T07:54:21;52.03;39.59;69.25;;
63692;Laerm;49838;51.798;10.954;2023-03-14T07:56:50;58.60;39.00;73.22;;
63692;Laerm;49838;51.798;10.954;2023-03-14T07:59:18;50.58;38.72;69.15;;
63692;Laerm;49838;51.798;10.954;2023-03-14T08:01:46;61.45;40.20;80.91;;
63692;Laerm;49838;51.798;10.954;2023-03-14T08:04:13;62.46;39.99;79.71;;
63692;Laerm;49838;51.798;10.954;2023-03-14T08:06:40;57.68;38.67;72.43;;
63692;Laerm;49838;51.798;10.954;2023-03-14T08:09:07;53.27;37.44;68.72;;
63692;Laerm;49838;51.798;10.954;2023-03-14T08:11:35;57.64;39.29;75.06;;
63692;Laerm;49838;51.798;10.954;2023-03-14T08:14:03;42.63;38.05;53.53;;
63692;Laerm;49838;51.798;10.954;2023-03-14T08:16:30;58.50;37.15;73.04;;
63692;Laerm;49838;51.798;10.954;2023-03-14T08:18:58;55.70;38.85;71.34;;
63692;Laerm;49838;51.798;10.954;2023-03-14T08:21:25;49.34;38.17;64.79;;
63692;Laerm;49838;51.798;10.954;2023-03-14T08:23:52;60.25;38.87;79.48;;
63692;Laerm;49838;51.798;10.954;2023-03-14T08:26:20;56.81;38.56;73.84;;
63692;Laerm;49838;51.798;10.954;2023-03-14T08:28:47;64.63;39.38;82.55;;
63692;Laerm;49838;51.798;10.954;2023-03-14T08:31:16;57.21;37.63;70.55;;
63692;Laerm;49838;51.798;10.954;2023-03-14T08:33:44;60.25;37.29;76.87;;
63692;Laerm;49838;51.798;10.954;2023-03-14T08:36:11;58.73;38.75;72.47;;
63692;Laerm;49838;51.798;10.954;2023-03-14T08:38:39;52.61;39.66;68.79;;
63692;Laerm;49838;51.798;10.954;2023-03-14T08:41:08;56.80;41.26;70.44;;
63692;Laerm;49838;51.798;10.954;2023-03-14T08:43:35;57.59;40.73;69.74;;
63692;Laerm;49838;51.798;10.954;2023-03-14T08:46:03;59.08;42.91;71.83;;
63692;Laerm;49838;51.798;10.954;2023-03-14T08:48:32;57.44;40.86;70.77;;
63692;Laerm;49838;51.798;10.954;2023-03-14T08:51:04;53.99;40.50;70.74;;
63692;Laerm;49838;51.798;10.954;2023-03-14T08:53:32;55.09;40.08;69.49;;
63692;Laerm;49838;51.798;10.954;2023-03-14T08:55:59;58.36;40.31;73.68;;
63692;Laerm;49838;51.798;10.954;2023-03-14T08:58:27;56.98;39.80;70.13;;
63692;Laerm;49838;51.798;10.954;2023-03-14T09:00:55;55.09;40.32;69.50;;
63692;Laerm;49838;51.798;10.954;2023-03-14T09:03:22;56.22;39.26;71.53;;
63692;Laerm;49838;51.798;10.954;2023-03-14T09:05:52;56.33;41.57;70.82;;
63692;Laerm;49838;51.798;10.954;2023-03-14T09:08:19;60.86;42.65;76.62;;
63692;Laerm;49838;51.798;10.954;2023-03-14T09:10:46;60.14;43.89;77.59;;
63692;Laerm;49838;51.798;10.954;2023-03-14T09:13:13;55.41;42.10;68.91;;
63692;Laerm;49838;51.798;10.954;2023-03-14T09:15:41;53.21;41.23;71.19;;
63692;Laerm;49838;51.798;10.954;2023-03-14T09:18:09;57.54;42.05;69.02;;
63692;Laerm;49838;51.798;10.954;2023-03-14T09:20:36;57.99;43.52;72.55;;
63692;Laerm;49838;51.798;10.954;2023-03-14T09:23:04;58.30;41.53;70.35;;
63692;Laerm;49838;51.798;10.954;2023-03-14T09:25:32;58.85;40.61;71.61;;
63692;Laerm;49838;51.798;10.954;2023-03-14T09:27:59;60.83;43.56;73.12;;
63692;Laerm;49838;51.798;10.954;2023-03-14T09:30:26;60.50;41.29;73.63;;
63692;Laerm;49838;51.798;10.954;2023-03-14T09:32:53;60.78;44.57;76.77;;
63692;Laerm;49838;51.798;10.954;2023-03-14T09:35:21;56.93;43.51;71.90;;
63692;Laerm;49838;51.798;10.954;2023-03-14T09:37:48;57.17;43.40;70.40;;
63692;Laerm;49838;51.798;10.954;2023-03-14T09:40:20;60.03;41.36;73.25;;
63692;Laerm;49838;51.798;10.954;2023-03-14T09:42:50;52.92;39.13;70.91;;
63692;Laerm;49838;51.798;10.954;2023-03-14T09:45:24;56.28;42.21;70.75;;
63692;Laerm;49838;51.798;10.954;2023-03-14T09:47:53;57.84;40.49;70.90;;
63692;Laerm;49838;51.798;10.954;2023-03-14T09:50:23;63.59;39.56;82.59;;
63692;Laerm;49838;51.798;10.954;2023-03-14T09:52:55;59.62;40.48;72.81;;
63692;Laerm;49838;51.798;10.954;2023-03-14T09:55:25;58.35;41.22;70.39;;
63692;Laerm;49838;51.798;10.954;2023-03-14T09:57:56;62.96;40.54;81.86;;
63692;Laerm;49838;51.798;10.954;2023-03-14T10:00:27;64.28;46.85;87.44;;
63692;Laerm;49838;51.798;10.954;2023-03-14T10:02:59;56.66;41.60;81.51;;
63692;Laerm;49838;51.798;10.954;2023-03-14T10:05:28;55.38;41.13;73.33;;
63692;Laerm;49838;51.798;10.954;2023-03-14T10:07:55;63.98;40.23;82.51;;
63692;Laerm;49838;51.798;10.954;2023-03-14T10:10:26;58.15;37.85;71.99;;
63692;Laerm;49838;51.798;10.954;2023-03-14T10:12:58;57.89;38.41;70.22;;
63692;Laerm;49838;51.798;10.954;2023-03-14T10:15:27;58.59;42.02;71.80;;
63692;Laerm;49838;51.798;10.954;2023-03-14T10:17:59;56.63;39.66;70.18;;
63692;Laerm;49838;51.798;10.954;2023-03-14T10:20:32;60.16;41.18;78.04;;
63692;Laerm;49838;51.798;10.954;2023-03-14T10:23:01;61.37;44.08;81.58;;
63692;Laerm;49838;51.798;10.954;2023-03-14T10:25:32;59.68;41.12;85.88;;
63692;Laerm;49838;51.798;10.954;2023-03-14T10:28:00;53.70;40.97;70.93;;
63692;Laerm;49838;51.798;10.954;2023-03-14T10:30:33;57.40;39.44;70.74;;
63692;Laerm;49838;51.798;10.954;2023-03-14T10:33:08;62.71;40.16;81.74;;
63692;Laerm;49838;51.798;10.954;2023-03-14T10:35:35;58.44;40.24;73.44;;
63692;Laerm;49838;51.798;10.954;2023-03-14T10:38:03;57.58;41.07;70.17;;
63692;Laerm;49838;51.798;10.954;2023-03-14T10:40:34;53.79;39.94;68.56;;
63692;Laerm;49838;51.798;10.954;2023-03-14T10:43:06;59.22;48.27;82.15;;
63692;Laerm;49838;51.798;10.954;2023-03-14T10:45:36;60.44;44.12;80.72;;
63692;Laerm;49838;51.798;10.954;2023-03-14T10:48:16;59.75;40.56;75.17;;
63692;Laerm;49838;51.798;10.954;2023-03-14T10:50:49;58.17;42.70;70.88;;
63692;Laerm;49838;51.798;10.954;2023-03-14T10:53:17;60.22;41.10;77.12;;
63692;Laerm;49838;51.798;10.954;2023-03-14T10:55:46;55.73;42.26;72.90;;
63692;Laerm;49838;51.798;10.954;2023-03-14T10:58:21;58.00;48.83;71.35;;
63692;Laerm;49838;51.798;10.954;2023-03-14T11:00:54;61.06;45.22;77.41;;
63692;Laerm;49838;51.798;10.954;2023-03-14T11:03:26;55.95;49.39;68.47;;
63692;Laerm;49838;51.798;10.954;2023-03-14T11:05:57;59.45;48.38;73.86;;
63692;Laerm;49838;51.798;10.954;2023-03-14T11:08:30;57.44;47.55;72.18;;
63692;Laerm;49838;51.798;10.954;2023-03-14T11:11:09;55.16;46.65;69.00;;
63692;Laerm;49838;51.798;10.954;2023-03-14T11:13:45;55.84;40.30;69.77;;
63692;Laerm;49838;51.798;10.954;2023-03-14T11:16:22;64.70;48.04;81.71;;
63692;Laerm;49838;51.798;10.954;2023-03-14T11:21:44;55.83;47.89;73.48;;
63692;Laerm;49838;51.798;10.954;2023-03-14T11:24:25;60.67;47.52;74.25;;
63692;Laerm;49838;51.798;10.954;2023-03-14T11:26:59;60.10;47.07;73.83;;
63692;Laerm;49838;51.798;10.954;2023-03-14T11:29:36;55.93;39.68;71.19;;
63692;Laerm;49838;51.798;10.954;2023-03-14T11:32:12;54.33;40.01;70.41;;
63692;Laerm;49838;51.798;10.954;2023-03-14T11:34:45;58.75;41.42;76.66;;
63692;Laerm;49838;51.798;10.954;2023-03-14T11:37:17;54.19;47.27;68.82;;
63692;Laerm;49838;51.798;10.954;2023-03-14T11:39:55;59.28;47.58;71.48;;
63692;Laerm;49838;51.798;10.954;2023-03-14T11:42:26;58.06;47.30;71.80;;
63692;Laerm;49838;51.798;10.954;2023-03-14T11:44:55;59.40;46.90;72.38;;
63692;Laerm;49838;51.798;10.954;2023-03-14T11:47:24;57.41;45.46;71.92;;
63692;Laerm;49838;51.798;10.954;2023-03-14T11:49:57;58.41;45.21;71.62;;
63692;Laerm;49838;51.798;10.954;2023-03-14T11:52:30;58.81;45.71;74.04;;
63692;Laerm;49838;51.798;10.954;2023-03-14T11:55:04;58.80;41.38;72.77;;
63692;Laerm;49838;51.798;10.954;2023-03-14T11:57:33;58.22;41.90;72.44;;
63692;Laerm;49838;51.798;10.954;2023-03-14T12:00:04;59.15;41.14;75.45;;
63692;Laerm;49838;51.798;10.954;2023-03-14T12:02:41;58.92;46.23;76.98;;
63692;Laerm;49838;51.798;10.954;2023-03-14T12:05:45;60.12;48.01;79.79;;
63692;Laerm;49838;51.798;10.954;2023-03-14T12:08:34;58.80;47.37;72.08;;
63692;Laerm;49838;51.798;10.954;2023-03-14T12:11:10;55.98;46.63;68.42;;
63692;Laerm;49838;51.798;10.954;2023-03-14T12:13:40;53.68;44.81;67.60;;
63692;Laerm;49838;51.798;10.954;2023-03-14T12:16:25;55.98;45.71;68.52;;
63692;Laerm;49838;51.798;10.954;2023-03-14T12:18:53;57.78;44.74;87.27;;
63692;Laerm;49838;51.798;10.954;2023-03-14T12:21:22;51.86;38.82;67.10;;
63692;Laerm;49838;51.798;10.954;2023-03-14T12:23:53;56.48;38.99;73.03;;
63692;Laerm;49838;51.798;10.954;2023-03-14T12:26:22;53.18;38.09;74.90;;
63692;Laerm;49838;51.798;10.954;2023-03-14T12:28:52;64.50;39.32;82.52;;
63692;Laerm;49838;51.798;10.954;2023-03-14T12:31:38;55.91;38.56;76.20;;
63692;Laerm;49838;51.798;10.954;2023-03-14T12:34:29;60.73;39.82;78.33;;
63692;Laerm;49838;51.798;10.954;2023-03-14T12:37:17;61.15;40.12;80.47;;
63692;Laerm;49838;51.798;10.954;2023-03-14T12:39:53;57.15;38.34;72.89;;
63692;Laerm;49838;51.798;10.954;2023-03-14T12:42:38;62.40;39.21;82.02;;
63692;Laerm;49838;51.798;10.954;2023-03-14T12:45:22;59.52;39.03;78.39;;
63692;Laerm;49838;51.798;10.954;2023-03-14T12:48:02;59.60;39.26;80.61;;
63692;Laerm;49838;51.798;10.954;2023-03-14T12:50:36;62.73;43.09;87.86;;
63692;Laerm;49838;51.798;10.954;2023-03-14T12:53:41;58.45;40.47;75.34;;
63692;Laerm;49838;51.798;10.954;2023-03-14T12:56:26;48.78;39.18;63.19;;
63692;Laerm;49838;51.798;10.954;2023-03-14T12:59:13;51.46;38.10;66.28;;
63692;Laerm;49838;51.798;10.954;2023-03-14T13:01:48;55.44;39.44;69.78;;
63692;Laerm;49838;51.798;10.954;2023-03-14T13:04:27;59.07;42.00;75.22;;
63692;Laerm;49838;51.798;10.954;2023-03-14T13:06:56;58.54;42.26;75.98;;
63692;Laerm;49838;51.798;10.954;2023-03-14T13:09:49;55.84;40.67;75.48;;
63692;Laerm;49838;51.798;10.954;2023-03-14T13:12:18;59.49;39.66;72.20;;
63692;Laerm;49838;51.798;10.954;2023-03-14T13:14:51;56.63;40.62;71.26;;
63692;Laerm;49838;51.798;10.954;2023-03-14T13:17:26;62.20;49.29;79.22;;
63692;Laerm;49838;51.798;10.954;2023-03-14T13:19:56;62.55;52.48;80.24;;
63692;Laerm;49838;51.798;10.954;2023-03-14T13:22:26;62.90;52.81;80.63;;
63692;Laerm;49838;51.798;10.954;2023-03-14T13:25:01;62.11;54.95;79.86;;
63692;Laerm;49838;51.798;10.954;2023-03-14T13:27:31;66.10;53.59;82.08;;
63692;Laerm;49838;51.798;10.954;2023-03-14T13:30:05;64.94;51.09;83.00;;
63692;Laerm;49838;51.798;10.954;2023-03-14T13:32:33;63.66;50.05;80.49;;
63692;Laerm;49838;51.798;10.954;2023-03-14T13:35:17;66.34;51.74;84.33;;
63692;Laerm;49838;51.798;10.954;2023-03-14T13:37:45;63.65;53.38;81.34;;
63692;Laerm;49838;51.798;10.954;2023-03-14T13:40:23;62.06;51.27;78.50;;
63692;Laerm;49838;51.798;10.954;2023-03-14T13:43:00;59.79;51.76;75.51;;
63692;Laerm;49838;51.798;10.954;2023-03-14T13:45:28;64.40;51.05;80.13;;
63692;Laerm;49838;51.798;10.954;2023-03-14T13:47:56;65.16;51.17;83.09;;
63692;Laerm;49838;51.798;10.954;2023-03-14T13:50:24;66.48;52.71;81.56;;